Terminal Aerodrome Forecast
Issued by NWS Wilmington, NC

Home | Current Version | Previous Version | Text Only | Print | Product List | Glossary On
Versions: 1 2 3 4 5 6 7 8 9 10 11 12 13 14 15 16 17 18 19 20 21
691
FTUS42 KILM 300007 CCB
TAFFLO
TAF COR
KFLO 300007Z 3000/3024 08005KT P6SM SCT025 BKN050
      TEMPO 3009/3012 BKN020
     FM301400 08009KT P6SM SCT030 BKN060 OVC120
     FM302100 10010KT P6SM VCSH SCT020 BKN030 OVC060=

USA.gov is the U.S. government's official web portal to all federal, state and local government web resources and services.